Airfield :







YOU CAN JOIN US ON...

 
LOGIN :

Register | Disclaimer

   EN    FR    IT 

 









Legend :    VFR   Marginal VFR   IFR   Intensive IFR   Very Intensive IFR
Visi :
Ceiling :
>= 8 km
>= 3000ft
5 to 8 km
1000 to 3000 ft
1500m to 5 km
500 to 1000 ft
800 to 1500m
200 to 500 ft
< 800m
< 200 ft
Symbols :   Thunderstorms  Fog  Heavy snow  Heavy precipitations  Wind > 20 kt






- Airport Elevation : 270 ft
- IATA code : YMX


CYMX - Montreal International Mirabel

CURRENT METAR :
  • 220000Z 06004KT 020V100 1/2SM R06/2800V3000FT/N FG VV002 08/08 A2975 RMK FG8 SLP076

EXPIRED METARs :
  • 212300Z 03004KT 340V080 1/2SM R06/3000V3500FT/N FG VV002 08/08 A2977 RMK FG8 SLP083
  • 212220Z 02005KT 340V060 1/2SM R24/4000V5500FT/D FG VV002 08/08 A2977 RMK FG8 SLP084
  • 212200Z 04004KT 330V090 1SM R06/P6000FT/N BR OVC002 08/08 A2977 RMK FG4ST4 TWR VIS 1/2 SLP085

TAF TAF CYMX
Valid from the 22 at 00:00 until the 23 at 00:00 UTC


212338Z 2200/2224 VRB03KT 1/2SM FG VV002
TEMPO 2200/2206 3SM BR OVC004
FM220600 20006KT 4SM -SHRA BR BKN005 OVC012
FM221300 29010G20KT P6SM OVC015
FM221700 29010KT P6SM BKN025
FM222100 28006KT P6SM SCT030 RMK NXT FCST BY 220600Z
CZUL FIR / North America



MET'MAP, your aeronautical weather chart ! - Copyright ORBIFLY December 2007 - Disclaimer

ORBIFLY MET'MAP TEAM :

Programming & Development : Alexandra Zaïnal
Concept & original design : Baudouin d'Aumeries
Assistance for programming : Marc-Olivier Méhu
Technical & hardware support : Manuel Goepfert

Contact : metmap@orbifly.com




SOURCES & CREDITS :

   NOAA